Time,TemperatureF,DewpointF,PressureIn,WindDirection,WindDirectionDegrees,WindSpeedMPH,WindSpeedGustMPH,Humidity,HourlyPrecipIn,Conditions,Clouds,dailyrainin,SoftwareType,DateUTC
2013-06-19 00:01:00,62.4,61.5,29.92,NNE,13,0.0,4.0,97,0.00,,---,0.48,VWS V14.00,2013-06-19 04:01:00,
2013-06-19 00:06:00,62.4,61.5,29.93,NW,323,0.0,4.0,97,0.00,,---,0.48,VWS V14.00,2013-06-19 04:06:00,
2013-06-19 00:11:00,62.3,61.4,29.93,NNW,331,0.0,2.0,97,0.00,,---,0.00,VWS V14.00,2013-06-19 04:11:00,
2013-06-19 00:16:00,62.2,61.3,29.93,NW,311,2.0,4.0,97,0.00,,---,0.00,VWS V14.00,2013-06-19 04:16:00,
2013-06-19 00:21:00,62.1,61.2,29.93,NW,319,0.0,4.0,97,0.00,,---,0.00,VWS V14.00,2013-06-19 04:21:00,
2013-06-19 00:26:00,62.1,61.2,29.93,NW,319,0.0,4.0,97,0.00,,---,0.00,VWS V14.00,2013-06-19 04:26:00,
2013-06-19 00:31:00,62.0,61.1,29.93,NNE,27,0.0,4.0,97,0.00,,---,0.00,VWS V14.00,2013-06-19 04:31:00,
2013-06-19 00:36:00,62.0,61.1,29.92,NNE,28,0.0,4.0,97,0.00,,---,0.00,VWS V14.00,2013-06-19 04:36:00,
2013-06-19 00:41:00,62.0,61.1,29.92,NNE,28,0.0,0.0,97,0.00,,---,0.00,VWS V14.00,2013-06-19 04:41:00,
2013-06-19 00:46:00,61.9,61.0,29.92,NNE,27,0.0,0.0,97,0.00,,---,0.00,VWS V14.00,2013-06-19 04:46:00,
2013-06-19 00:51:00,61.9,61.0,29.92,NNE,28,0.0,0.0,97,0.00,,---,0.00,VWS V14.00,2013-06-19 04:51:00,
2013-06-19 00:56:00,61.8,60.9,29.92,NNE,28,0.0,0.0,97,0.00,,---,0.00,VWS V14.00,2013-06-19 04:56:00,
2013-06-19 01:01:00,61.7,60.8,29.92,NNE,28,0.0,0.0,97,0.00,,---,0.00,VWS V14.00,2013-06-19 05:01:00,
2013-06-19 01:06:00,61.7,60.8,29.92,NNE,28,0.0,0.0,97,0.00,,---,0.00,VWS V14.00,2013-06-19 05:06:00,
2013-06-19 01:11:00,61.6,60.7,29.92,NNE,28,0.0,0.0,97,0.00,,---,0.00,VWS V14.00,2013-06-19 05:11:00,
2013-06-19 01:16:00,61.5,60.6,29.92,NNE,28,0.0,0.0,97,0.00,,---,0.00,VWS V14.00,2013-06-19 05:16:00,
2013-06-19 01:21:00,61.4,60.5,29.91,NNE,28,0.0,0.0,97,0.00,,---,0.00,VWS V14.00,2013-06-19 05:21:00,
2013-06-19 01:26:00,61.4,60.5,29.91,NNE,28,0.0,0.0,97,0.00,,---,0.00,VWS V14.00,2013-06-19 05:26:00,
2013-06-19 01:31:00,61.4,60.5,29.91,NNE,28,0.0,0.0,97,0.00,,---,0.00,VWS V14.00,2013-06-19 05:31:00,
2013-06-19 01:36:00,61.4,60.5,29.91,NNE,28,0.0,0.0,97,0.00,,---,0.00,VWS V14.00,2013-06-19 05:36:00,
2013-06-19 01:41:00,61.4,60.5,29.91,NNE,28,0.0,0.0,97,0.00,,---,0.00,VWS V14.00,2013-06-19 05:41:00,
2013-06-19 01:46:00,61.4,60.5,29.91,NNE,27,0.0,0.0,97,0.00,,---,0.00,VWS V14.00,2013-06-19 05:46:00,
2013-06-19 01:51:00,61.5,60.9,29.91,NNE,28,0.0,0.0,98,0.00,,---,0.00,VWS V14.00,2013-06-19 05:51:00,
2013-06-19 01:56:00,61.4,60.8,29.91,NNE,28,0.0,0.0,98,0.00,,---,0.00,VWS V14.00,2013-06-19 05:56:00,
2013-06-19 02:01:00,61.4,60.8,29.91,NNE,28,0.0,0.0,98,0.00,,---,0.00,VWS V14.00,2013-06-19 06:01:00,
2013-06-19 02:06:00,61.3,60.4,29.92,NNE,28,0.0,0.0,97,0.00,,---,0.00,VWS V14.00,2013-06-19 06:06:00,
2013-06-19 02:11:00,61.2,60.3,29.93,NNE,28,0.0,0.0,97,0.00,,---,0.00,VWS V14.00,2013-06-19 06:11:00,
2013-06-19 02:16:00,61.1,60.2,29.92,NNE,28,0.0,0.0,97,0.00,,---,0.00,VWS V14.00,2013-06-19 06:16:00,
2013-06-19 02:21:00,61.1,60.2,29.93,NNE,28,0.0,0.0,97,0.00,,---,0.00,VWS V14.00,2013-06-19 06:21:00,
2013-06-19 02:26:00,61.0,60.4,29.92,NNE,28,0.0,0.0,98,0.00,,---,0.00,VWS V14.00,2013-06-19 06:26:00,
2013-06-19 02:31:00,60.9,60.3,29.92,NNE,28,0.0,0.0,98,0.00,,---,0.00,VWS V14.00,2013-06-19 06:31:00,
2013-06-19 02:36:00,60.9,60.3,29.92,NNE,28,0.0,0.0,98,0.00,,---,0.00,VWS V14.00,2013-06-19 06:36:00,
2013-06-19 02:41:00,60.8,60.2,29.92,NNE,28,0.0,0.0,98,0.00,,---,0.00,VWS V14.00,2013-06-19 06:41:00,
2013-06-19 02:46:00,60.7,60.1,29.92,NNE,26,0.0,0.0,98,0.00,,---,0.00,VWS V14.00,2013-06-19 06:46:00,
2013-06-19 02:51:00,60.6,59.8,29.92,NNE,28,0.0,0.0,97,0.00,,---,0.00,VWS V14.00,2013-06-19 06:51:00,
2013-06-19 02:56:00,60.5,59.7,29.92,NNE,26,0.0,0.0,97,0.00,,---,0.00,VWS V14.00,2013-06-19 06:56:00,
2013-06-19 03:01:00,60.4,59.5,29.92,NNE,28,0.0,0.0,97,0.00,,---,0.00,VWS V14.00,2013-06-19 07:01:00,
2013-06-19 03:06:00,60.3,59.5,29.92,NNE,28,0.0,0.0,97,0.00,,---,0.00,VWS V14.00,2013-06-19 07:06:00,
2013-06-19 03:11:00,60.4,59.8,29.92,NNE,28,0.0,1.0,98,0.00,,---,0.00,VWS V14.00,2013-06-19 07:11:00,
2013-06-19 03:16:00,60.4,59.8,29.92,NNE,28,0.0,1.0,98,0.00,,---,0.00,VWS V14.00,2013-06-19 07:16:00,
2013-06-19 03:21:00,60.3,59.5,29.93,NNE,27,0.0,1.0,97,0.00,,---,0.00,VWS V14.00,2013-06-19 07:21:00,
2013-06-19 03:26:00,60.2,59.6,29.93,NNE,28,0.0,1.0,98,0.00,,---,0.00,VWS V14.00,2013-06-19 07:26:00,
2013-06-19 03:31:00,60.2,59.6,29.93,NNE,28,0.0,1.0,98,0.00,,---,0.00,VWS V14.00,2013-06-19 07:31:00,
2013-06-19 03:36:00,60.1,59.2,29.93,NNE,27,0.0,1.0,97,0.00,,---,0.00,VWS V14.00,2013-06-19 07:36:00,
2013-06-19 03:41:00,60.0,59.2,29.93,NNE,28,0.0,0.0,97,0.00,,---,0.00,VWS V14.00,2013-06-19 07:41:00,
2013-06-19 03:46:00,60.0,59.2,29.93,NNE,28,0.0,0.0,97,0.00,,---,0.00,VWS V14.00,2013-06-19 07:46:00,
2013-06-19 03:51:00,59.8,59.0,29.93,NNE,28,0.0,0.0,97,0.00,,---,0.00,VWS V14.00,2013-06-19 07:51:00,
2013-06-19 03:56:00,59.7,58.8,29.94,NNE,28,0.0,0.0,97,0.00,,---,0.00,VWS V14.00,2013-06-19 07:56:00,
2013-06-19 04:01:00,59.6,58.8,29.94,NNE,28,0.0,0.0,97,0.00,,---,0.00,VWS V14.00,2013-06-19 08:01:00,
2013-06-19 04:06:00,59.5,58.7,29.94,NNE,28,0.0,0.0,97,0.00,,---,0.00,VWS V14.00,2013-06-19 08:06:00,
2013-06-19 04:11:00,59.5,58.7,29.94,NNE,28,0.0,0.0,97,0.00,,---,0.00,VWS V14.00,2013-06-19 08:11:00,
2013-06-19 04:16:00,59.4,58.5,29.94,NNE,28,0.0,0.0,97,0.00,,---,0.00,VWS V14.00,2013-06-19 08:16:00,
2013-06-19 04:21:00,59.5,58.7,29.94,NNE,28,0.0,0.0,97,0.00,,---,0.00,VWS V14.00,2013-06-19 08:21:00,
2013-06-19 04:26:00,59.4,58.5,29.94,NNE,28,0.0,0.0,97,0.00,,---,0.00,VWS V14.00,2013-06-19 08:26:00,
2013-06-19 04:31:00,59.4,58.5,29.93,NNE,28,0.0,0.0,97,0.00,,---,0.00,VWS V14.00,2013-06-19 08:31:00,
2013-06-19 04:36:00,59.5,58.9,29.93,NNE,28,0.0,0.0,98,0.00,,---,0.00,VWS V14.00,2013-06-19 08:36:00,
2013-06-19 04:41:00,59.5,58.9,29.94,NNE,28,0.0,0.0,98,0.00,,---,0.00,VWS V14.00,2013-06-19 08:41:00,
2013-06-19 04:46:00,59.6,59.0,29.94,NNE,28,0.0,1.0,98,0.00,,---,0.00,VWS V14.00,2013-06-19 08:46:00,
2013-06-19 04:51:00,59.6,59.0,29.94,NNE,28,0.0,1.0,98,0.00,,---,0.00,VWS V14.00,2013-06-19 08:51:00,
2013-06-19 04:56:00,59.6,59.0,29.93,NNE,28,0.0,1.0,98,0.00,,---,0.00,VWS V14.00,2013-06-19 08:56:00,
2013-06-19 05:01:00,59.5,58.7,29.93,NNE,28,0.0,1.0,97,0.00,,---,0.00,VWS V14.00,2013-06-19 09:01:00,
2013-06-19 05:06:00,59.1,58.2,29.93,NNE,28,0.0,1.0,97,0.00,,---,0.00,VWS V14.00,2013-06-19 09:06:00,
2013-06-19 05:11:00,59.0,58.4,29.94,NNE,28,0.0,0.0,98,0.00,,---,0.00,VWS V14.00,2013-06-19 09:11:00,
2013-06-19 05:16:00,59.0,58.4,29.94,NNE,28,0.0,1.0,98,0.00,,---,0.00,VWS V14.00,2013-06-19 09:16:00,
2013-06-19 05:21:00,59.0,58.4,29.94,NNE,28,0.0,1.0,98,0.00,,---,0.00,VWS V14.00,2013-06-19 09:21:00,
2013-06-19 05:26:00,59.0,58.4,29.95,NNE,28,0.0,1.0,98,0.00,,---,0.00,VWS V14.00,2013-06-19 09:26:00,
2013-06-19 05:31:00,59.0,58.4,29.95,NNE,28,0.0,1.0,98,0.00,,---,0.00,VWS V14.00,2013-06-19 09:31:00,
2013-06-19 05:36:00,59.0,58.4,29.95,NNE,28,0.0,1.0,98,0.00,,---,0.00,VWS V14.00,2013-06-19 09:36:00,
2013-06-19 05:41:00,59.0,58.4,29.95,NNE,28,0.0,0.0,98,0.00,,---,0.00,VWS V14.00,2013-06-19 09:41:00,
2013-06-19 05:46:00,58.9,58.3,29.95,NNE,28,0.0,0.0,98,0.00,,---,0.00,VWS V14.00,2013-06-19 09:46:00,
2013-06-19 05:51:00,58.8,58.0,29.95,NNE,28,0.0,0.0,97,0.00,,---,0.00,VWS V14.00,2013-06-19 09:51:00,
2013-06-19 05:56:00,58.8,58.2,29.96,NNE,28,0.0,0.0,98,0.00,,---,0.00,VWS V14.00,2013-06-19 09:56:00,
2013-06-19 06:01:00,58.8,58.2,29.96,NNE,28,0.0,0.0,98,0.00,,---,0.00,VWS V14.00,2013-06-19 10:01:00,
2013-06-19 06:06:00,58.8,58.2,29.96,NNE,28,0.0,0.0,98,0.00,,---,0.00,VWS V14.00,2013-06-19 10:06:00,
2013-06-19 06:11:00,58.9,58.3,29.96,NNE,28,0.0,0.0,98,0.00,,---,0.00,VWS V14.00,2013-06-19 10:11:00,
2013-06-19 06:16:00,59.0,58.4,29.96,NNE,27,0.0,2.0,98,0.00,,---,0.00,VWS V14.00,2013-06-19 10:16:00,
2013-06-19 06:21:00,59.0,58.4,29.97,NNE,26,0.0,2.0,98,0.00,,---,0.00,VWS V14.00,2013-06-19 10:21:00,
2013-06-19 06:26:00,59.0,58.4,29.97,NNE,28,0.0,2.0,98,0.00,,---,0.00,VWS V14.00,2013-06-19 10:26:00,
2013-06-19 06:31:00,59.0,58.4,29.97,NNE,28,0.0,2.0,98,0.00,,---,0.00,VWS V14.00,2013-06-19 10:31:00,
2013-06-19 06:36:00,59.0,58.4,29.98,NNE,28,0.0,2.0,98,0.00,,---,0.00,VWS V14.00,2013-06-19 10:36:00,
2013-06-19 06:41:00,59.1,58.5,29.98,NNE,28,0.0,0.0,98,0.00,,---,0.00,VWS V14.00,2013-06-19 10:41:00,
2013-06-19 06:46:00,59.2,58.6,29.98,NNW,337,0.0,0.0,98,0.00,,---,0.00,VWS V14.00,2013-06-19 10:46:00,
2013-06-19 06:51:00,59.1,58.5,29.98,NNW,337,0.0,0.0,98,0.00,,---,0.00,VWS V14.00,2013-06-19 10:51:00,
2013-06-19 06:56:00,59.1,58.5,29.98,NNW,337,0.0,0.0,98,0.00,,---,0.00,VWS V14.00,2013-06-19 10:56:00,
2013-06-19 07:01:00,59.1,58.5,29.99,South,180,0.0,1.0,98,0.00,,---,0.00,VWS V14.00,2013-06-19 11:01:00,
2013-06-19 07:06:00,59.0,58.4,29.99,South,179,0.0,1.0,98,0.00,,---,0.00,VWS V14.00,2013-06-19 11:06:00,
2013-06-19 07:11:00,59.0,58.4,30.00,South,179,0.0,2.0,98,0.00,,---,0.00,VWS V14.00,2013-06-19 11:11:00,
2013-06-19 07:16:00,59.0,58.4,30.00,South,180,0.0,2.0,98,0.00,,---,0.00,VWS V14.00,2013-06-19 11:16:00,
2013-06-19 07:21:00,59.2,58.6,30.00,South,179,0.0,2.0,98,0.00,,---,0.00,VWS V14.00,2013-06-19 11:21:00,
2013-06-19 07:26:00,59.4,58.8,30.00,South,180,0.0,2.0,98,0.00,,---,0.00,VWS V14.00,2013-06-19 11:26:00,
2013-06-19 07:31:00,59.5,58.9,30.00,South,180,0.0,2.0,98,0.00,,---,0.00,VWS V14.00,2013-06-19 11:31:00,
2013-06-19 07:36:00,59.5,58.9,30.00,South,180,0.0,2.0,98,0.00,,---,0.00,VWS V14.00,2013-06-19 11:36:00,
2013-06-19 07:41:00,59.5,58.9,30.00,South,179,0.0,1.0,98,0.00,,---,0.00,VWS V14.00,2013-06-19 11:41:00,
2013-06-19 07:46:00,59.6,59.0,30.01,South,179,0.0,1.0,98,0.00,,---,0.00,VWS V14.00,2013-06-19 11:46:00,
2013-06-19 07:51:00,59.7,59.1,30.01,South,180,0.0,1.0,98,0.00,,---,0.00,VWS V14.00,2013-06-19 11:51:00,
2013-06-19 07:56:00,59.7,59.7,30.01,South,180,0.0,1.0,100,0.00,,---,0.00,VWS V14.00,2013-06-19 11:56:00,
2013-06-19 08:01:00,59.8,59.5,30.01,South,179,0.0,1.0,99,0.00,,---,0.00,VWS V14.00,2013-06-19 12:01:00,
2013-06-19 08:06:00,59.9,59.6,30.01,South,179,0.0,1.0,99,0.00,,---,0.00,VWS V14.00,2013-06-19 12:06:00,
2013-06-19 08:11:00,59.9,59.6,30.01,South,180,0.0,0.0,99,0.00,,---,0.00,VWS V14.00,2013-06-19 12:11:00,
2013-06-19 08:16:00,59.9,59.6,30.01,SE,128,0.0,1.0,99,0.00,,---,0.00,VWS V14.00,2013-06-19 12:16:00,
2013-06-19 08:21:00,59.9,59.6,30.02,SW,224,0.0,1.0,99,0.00,,---,0.00,VWS V14.00,2013-06-19 12:21:00,
2013-06-19 08:26:00,59.9,59.6,30.02,SW,223,0.0,1.0,99,0.00,,---,0.00,VWS V14.00,2013-06-19 12:26:00,
2013-06-19 08:31:00,59.9,59.6,30.02,WNW,285,0.0,1.0,99,0.00,,---,0.00,VWS V14.00,2013-06-19 12:31:00,
2013-06-19 08:36:00,60.0,59.7,30.02,SE,128,0.0,1.0,99,0.00,,---,0.00,VWS V14.00,2013-06-19 12:36:00,
2013-06-19 08:41:00,60.0,59.7,30.02,SE,128,0.0,0.0,99,0.00,,---,0.00,VWS V14.00,2013-06-19 12:41:00,
2013-06-19 08:46:00,60.2,59.9,30.02,SE,128,0.0,0.0,99,0.00,,---,0.00,VWS V14.00,2013-06-19 12:46:00,
2013-06-19 08:51:00,60.6,60.3,30.02,SE,128,0.0,0.0,99,0.00,,---,0.00,VWS V14.00,2013-06-19 12:51:00,
2013-06-19 08:56:00,61.1,60.8,30.02,SE,128,0.0,1.0,99,0.00,,---,0.00,VWS V14.00,2013-06-19 12:56:00,
2013-06-19 09:01:00,61.2,60.9,30.02,SSE,162,0.0,1.0,99,0.00,,---,0.00,VWS V14.00,2013-06-19 13:01:00,
2013-06-19 09:06:00,61.7,61.4,30.02,SSE,153,0.0,1.0,99,0.00,,---,0.00,VWS V14.00,2013-06-19 13:06:00,
2013-06-19 09:11:00,61.9,61.6,30.02,SSE,154,0.0,1.0,99,0.00,,---,0.00,VWS V14.00,2013-06-19 13:11:00,
2013-06-19 09:16:00,62.0,61.7,30.02,SSE,154,0.0,1.0,99,0.00,,---,0.00,VWS V14.00,2013-06-19 13:16:00,
2013-06-19 09:21:00,62.2,61.6,30.02,SSE,154,0.0,1.0,98,0.00,,---,0.00,VWS V14.00,2013-06-19 13:21:00,
2013-06-19 09:26:00,62.5,61.9,30.02,SSE,150,1.0,1.0,98,0.00,,---,0.00,VWS V14.00,2013-06-19 13:26:00,
2013-06-19 09:31:00,62.9,62.3,30.02,SSE,150,0.0,1.0,98,0.00,,---,0.00,VWS V14.00,2013-06-19 13:31:00,
2013-06-19 09:36:00,63.5,62.6,30.02,SSE,149,0.0,1.0,97,0.00,,---,0.00,VWS V14.00,2013-06-19 13:36:00,
2013-06-19 09:41:00,63.8,62.9,30.02,SSE,149,0.0,1.0,97,0.00,,---,0.00,VWS V14.00,2013-06-19 13:41:00,
2013-06-19 09:46:00,64.2,63.0,30.02,SSE,150,0.0,1.0,96,0.00,,---,0.00,VWS V14.00,2013-06-19 13:46:00,
2013-06-19 09:51:00,64.6,62.8,30.02,SSE,150,0.0,3.0,94,0.00,,---,0.00,VWS V14.00,2013-06-19 13:51:00,
2013-06-19 09:56:00,65.1,63.0,30.02,SSE,150,0.0,3.0,93,0.00,,---,0.00,VWS V14.00,2013-06-19 13:56:00,
2013-06-19 10:01:00,65.3,62.9,30.02,SSE,150,0.0,3.0,92,0.00,,---,0.00,VWS V14.00,2013-06-19 14:01:00,
2013-06-19 10:06:00,65.7,63.3,30.01,SSE,151,0.0,3.0,92,0.00,,---,0.00,VWS V14.00,2013-06-19 14:06:00,
2013-06-19 10:11:00,65.9,62.9,30.02,SSE,151,0.0,0.0,90,0.00,,---,0.00,VWS V14.00,2013-06-19 14:11:00,
2013-06-19 10:16:00,66.1,63.1,30.02,SSE,151,0.0,0.0,90,0.00,,---,0.00,VWS V14.00,2013-06-19 14:16:00,
2013-06-19 10:21:00,66.3,63.0,30.02,SSE,150,0.0,1.0,89,0.00,,---,0.00,VWS V14.00,2013-06-19 14:21:00,
2013-06-19 10:25:00,66.6,62.9,30.01,SSW,193,0.0,1.0,88,0.01,,---,0.01,VWS V14.00,2013-06-19 14:25:00,
2013-06-19 10:30:00,67.0,64.0,30.01,SSW,193,0.0,1.0,90,0.01,,---,0.01,VWS V14.00,2013-06-19 14:30:00,
2013-06-19 10:35:00,67.5,63.8,30.01,SSW,193,0.0,1.0,88,0.01,,---,0.01,VWS V14.00,2013-06-19 14:35:00,
2013-06-19 10:40:00,67.7,63.0,30.01,SSW,192,0.0,1.0,85,0.01,,---,0.01,VWS V14.00,2013-06-19 14:40:00,
2013-06-19 10:45:00,68.0,63.3,30.01,SSW,192,0.0,1.0,85,0.01,,---,0.01,VWS V14.00,2013-06-19 14:45:00,
2013-06-19 10:50:00,68.5,64.5,30.00,SSW,193,0.0,1.0,87,0.01,,---,0.01,VWS V14.00,2013-06-19 14:50:00,
2013-06-19 10:55:00,69.0,64.3,30.00,SSW,193,0.0,1.0,85,0.01,,---,0.01,VWS V14.00,2013-06-19 14:55:00,
2013-06-19 11:00:00,69.4,63.7,30.00,SSW,193,0.0,1.0,82,0.01,,---,0.01,VWS V14.00,2013-06-19 15:00:00,
2013-06-19 11:05:00,69.6,63.9,30.01,SSW,192,0.0,1.0,82,0.01,,---,0.01,VWS V14.00,2013-06-19 15:05:00,
2013-06-19 11:10:00,69.9,64.5,30.00,SSW,192,0.0,1.0,83,0.01,,---,0.01,VWS V14.00,2013-06-19 15:10:00,
2013-06-19 11:15:00,70.2,64.8,30.00,SSW,193,0.0,1.0,83,0.01,,---,0.01,VWS V14.00,2013-06-19 15:15:00,
2013-06-19 11:20:00,70.7,65.6,30.01,SSW,192,0.0,1.0,84,0.01,,---,0.01,VWS V14.00,2013-06-19 15:20:00,
2013-06-19 11:25:00,70.8,65.4,30.01,SSW,192,0.0,1.0,83,0.01,,---,0.01,VWS V14.00,2013-06-19 15:25:00,
2013-06-19 11:30:00,71.0,65.2,30.01,South,182,0.0,1.0,82,0.01,,---,0.01,VWS V14.00,2013-06-19 15:30:00,
2013-06-19 11:35:00,71.3,65.9,30.01,South,182,0.0,1.0,83,0.01,,---,0.01,VWS V14.00,2013-06-19 15:35:00,
2013-06-19 11:40:00,71.3,65.5,30.01,ESE,113,0.0,1.0,82,0.00,,---,0.01,VWS V14.00,2013-06-19 15:40:00,
2013-06-19 11:45:00,71.5,65.4,30.01,ESE,113,0.0,1.0,81,0.00,,---,0.01,VWS V14.00,2013-06-19 15:45:00,
2013-06-19 11:50:00,71.8,66.7,30.01,ESE,113,0.0,1.0,84,0.00,,---,0.01,VWS V14.00,2013-06-19 15:50:00,
2013-06-19 11:55:00,71.8,66.0,30.01,ESE,113,1.0,2.0,82,0.00,,---,0.01,VWS V14.00,2013-06-19 15:55:00,
2013-06-19 12:00:00,71.8,65.3,30.01,ESE,113,0.0,2.0,80,0.00,,---,0.01,VWS V14.00,2013-06-19 16:00:00,
2013-06-19 12:05:00,71.7,64.8,30.01,ESE,113,0.0,2.0,79,0.00,,---,0.01,VWS V14.00,2013-06-19 16:05:00,
2013-06-19 12:10:00,71.7,66.3,30.01,ESE,113,0.0,1.0,83,0.00,,---,0.01,VWS V14.00,2013-06-19 16:10:00,
2013-06-19 12:15:00,71.8,66.0,30.01,ESE,113,0.0,1.0,82,0.00,,---,0.01,VWS V14.00,2013-06-19 16:15:00,
2013-06-19 12:20:00,71.9,65.8,30.01,ESE,113,0.0,1.0,81,0.00,,---,0.01,VWS V14.00,2013-06-19 16:20:00,
2013-06-19 12:25:00,71.9,65.8,30.01,ESE,111,0.0,1.0,81,0.00,,---,0.01,VWS V14.00,2013-06-19 16:25:00,
2013-06-19 12:30:00,72.2,67.4,30.01,ESE,112,0.0,1.0,85,0.00,,---,0.01,VWS V14.00,2013-06-19 16:30:00,
2013-06-19 12:35:00,72.5,67.7,30.01,ESE,112,0.0,1.0,85,0.00,,---,0.01,VWS V14.00,2013-06-19 16:35:00,
2013-06-19 12:40:00,72.6,67.2,30.01,ESE,111,0.0,0.0,83,0.00,,---,0.01,VWS V14.00,2013-06-19 16:40:00,
2013-06-19 12:45:00,73.0,67.5,30.01,ESE,111,0.0,1.0,83,0.00,,---,0.01,VWS V14.00,2013-06-19 16:45:00,
2013-06-19 12:50:00,73.2,67.0,30.02,ESE,121,0.0,4.0,81,0.00,,---,0.01,VWS V14.00,2013-06-19 16:50:00,
2013-06-19 12:55:00,73.3,67.8,30.01,ESE,117,0.0,4.0,83,0.00,,---,0.01,VWS V14.00,2013-06-19 16:55:00,
2013-06-19 13:00:00,73.6,68.5,30.00,South,190,0.0,4.0,84,0.00,,---,0.01,VWS V14.00,2013-06-19 17:00:00,
2013-06-19 13:05:00,73.9,67.7,30.00,ESE,113,0.0,4.0,81,0.00,,---,0.01,VWS V14.00,2013-06-19 17:05:00,
2013-06-19 13:10:00,74.5,68.7,30.00,ESE,113,0.0,1.0,82,0.00,,---,0.01,VWS V14.00,2013-06-19 17:10:00,
2013-06-19 13:15:00,74.9,69.0,30.00,ESE,113,0.0,1.0,82,0.00,,---,0.01,VWS V14.00,2013-06-19 17:15:00,
2013-06-19 13:20:00,75.2,69.0,30.00,ESE,113,0.0,1.0,81,0.00,,---,0.01,VWS V14.00,2013-06-19 17:20:00,
2013-06-19 13:25:00,75.5,68.9,30.00,South,173,0.0,4.0,80,0.00,,---,0.01,VWS V14.00,2013-06-19 17:25:00,
2013-06-19 13:30:00,75.7,68.7,30.00,South,173,0.0,4.0,79,0.00,,---,0.01,VWS V14.00,2013-06-19 17:30:00,
2013-06-19 13:35:00,76.2,69.2,30.00,SSE,165,0.0,4.0,79,0.00,,---,0.01,VWS V14.00,2013-06-19 17:35:00,
2013-06-19 13:40:00,76.8,69.8,30.00,East,89,0.0,1.0,79,0.00,,---,0.01,VWS V14.00,2013-06-19 17:40:00,
2013-06-19 13:45:00,77.0,68.5,29.99,East,83,0.0,5.0,75,0.00,,---,0.01,VWS V14.00,2013-06-19 17:45:00,
2013-06-19 13:50:00,76.9,68.8,30.00,SSW,198,0.0,5.0,76,0.00,,---,0.01,VWS V14.00,2013-06-19 17:50:00,
2013-06-19 13:55:00,76.9,68.8,29.99,ENE,59,0.0,5.0,76,0.00,,---,0.01,VWS V14.00,2013-06-19 17:55:00,
2013-06-19 14:00:00,76.8,67.9,30.00,ENE,74,0.0,5.0,74,0.00,,---,0.01,VWS V14.00,2013-06-19 18:00:00,
2013-06-19 14:05:00,77.1,69.3,29.99,ENE,64,0.0,5.0,77,0.00,,---,0.01,VWS V14.00,2013-06-19 18:05:00,
2013-06-19 14:10:00,77.3,68.4,30.00,ESE,113,0.0,3.0,74,0.00,,---,0.01,VWS V14.00,2013-06-19 18:10:00,
2013-06-19 14:15:00,77.4,69.2,30.00,SE,137,0.0,4.0,76,0.00,,---,0.01,VWS V14.00,2013-06-19 18:15:00,
2013-06-19 14:20:00,77.7,68.0,29.99,SE,134,1.0,4.0,72,0.00,,---,0.01,VWS V14.00,2013-06-19 18:20:00,
2013-06-19 14:25:00,78.2,69.6,29.99,SSE,147,0.0,4.0,75,0.00,,---,0.01,VWS V14.00,2013-06-19 18:25:00,
2013-06-19 14:30:00,78.4,70.2,29.99,SSE,150,0.0,4.0,76,0.00,,---,0.01,VWS V14.00,2013-06-19 18:30:00,
2013-06-19 14:35:00,78.2,70.0,29.99,SSE,150,0.0,4.0,76,0.00,,---,0.01,VWS V14.00,2013-06-19 18:35:00,
2013-06-19 14:40:00,77.9,67.3,29.99,SSE,150,0.0,0.0,70,0.00,,---,0.01,VWS V14.00,2013-06-19 18:40:00,
2013-06-19 14:45:00,78.1,69.9,29.98,SSE,150,0.0,0.0,76,0.00,,---,0.01,VWS V14.00,2013-06-19 18:45:00,
2013-06-19 14:50:00,78.6,68.0,29.98,SSE,150,0.0,1.0,70,0.00,,---,0.01,VWS V14.00,2013-06-19 18:50:00,
2013-06-19 14:55:00,78.9,69.1,29.98,SSE,155,0.0,1.0,72,0.00,,---,0.01,VWS V14.00,2013-06-19 18:55:00,
2013-06-19 15:00:00,79.2,68.2,29.98,SSE,160,0.0,2.0,69,0.00,,---,0.01,VWS V14.00,2013-06-19 19:00:00,
2013-06-19 15:05:00,79.4,69.2,29.98,SSE,160,0.0,2.0,71,0.00,,---,0.01,VWS V14.00,2013-06-19 19:05:00,
2013-06-19 15:10:00,79.3,67.4,29.98,SSE,160,0.0,0.0,67,0.00,,---,0.01,VWS V14.00,2013-06-19 19:10:00,
2013-06-19 15:15:00,79.3,68.7,29.98,SSE,160,0.0,0.0,70,0.00,,---,0.01,VWS V14.00,2013-06-19 19:15:00,
2013-06-19 15:20:00,79.1,68.1,29.98,SSE,160,0.0,0.0,69,0.00,,---,0.01,VWS V14.00,2013-06-19 19:20:00,
2013-06-19 15:25:00,78.9,69.1,29.97,SSE,160,0.0,0.0,72,0.00,,---,0.01,VWS V14.00,2013-06-19 19:25:00,
2013-06-19 15:30:00,78.7,68.1,29.97,SSE,160,0.0,0.0,70,0.00,,---,0.01,VWS V14.00,2013-06-19 19:30:00,
2013-06-19 15:35:00,78.9,67.4,29.97,SSE,160,0.0,2.0,68,0.00,,---,0.01,VWS V14.00,2013-06-19 19:35:00,
2013-06-19 15:40:00,79.3,66.5,29.97,NNE,22,0.0,1.0,65,0.00,,---,0.01,VWS V14.00,2013-06-19 19:40:00,
2013-06-19 15:45:00,79.9,66.2,29.96,SSE,164,1.0,3.0,63,0.00,,---,0.01,VWS V14.00,2013-06-19 19:45:00,
2013-06-19 15:50:00,80.3,70.1,29.96,SSE,150,0.0,3.0,71,0.00,,---,0.01,VWS V14.00,2013-06-19 19:50:00,
2013-06-19 15:55:00,80.6,65.9,29.96,SSE,150,0.0,3.0,61,0.00,,---,0.01,VWS V14.00,2013-06-19 19:55:00,
2013-06-19 16:00:00,81.0,66.3,29.97,SSE,153,0.0,3.0,61,0.00,,---,0.01,VWS V14.00,2013-06-19 20:00:00,
2013-06-19 16:05:00,81.4,66.2,29.97,SSE,153,0.0,3.0,60,0.00,,---,0.01,VWS V14.00,2013-06-19 20:05:00,
2013-06-19 16:10:00,81.4,67.6,29.96,SSE,153,0.0,0.0,63,0.00,,---,0.01,VWS V14.00,2013-06-19 20:10:00,
2013-06-19 16:15:00,81.7,68.3,29.96,SSE,153,0.0,1.0,64,0.00,,---,0.01,VWS V14.00,2013-06-19 20:15:00,
2013-06-19 16:20:00,82.0,69.1,29.96,SSE,152,0.0,1.0,65,0.00,,---,0.01,VWS V14.00,2013-06-19 20:20:00,
2013-06-19 16:25:00,81.9,65.2,29.97,East,84,0.0,3.0,57,0.00,,---,0.01,VWS V14.00,2013-06-19 20:25:00,
2013-06-19 16:30:00,82.1,66.8,29.97,East,84,0.0,3.0,60,0.00,,---,0.01,VWS V14.00,2013-06-19 20:30:00,
2013-06-19 16:35:00,82.1,66.8,29.97,SE,128,4.0,4.0,60,0.00,,---,0.01,VWS V14.00,2013-06-19 20:35:00,
2013-06-19 16:40:00,82.1,70.9,29.96,ESE,113,0.0,1.0,69,0.00,,---,0.01,VWS V14.00,2013-06-19 20:40:00,
2013-06-19 16:45:00,81.9,70.7,29.96,SE,125,0.0,1.0,69,0.00,,---,0.01,VWS V14.00,2013-06-19 20:45:00,
2013-06-19 16:50:00,82.0,69.1,29.97,SE,127,0.0,4.0,65,0.00,,---,0.01,VWS V14.00,2013-06-19 20:50:00,
2013-06-19 16:55:00,82.0,65.8,29.97,SE,128,0.0,4.0,58,0.00,,---,0.01,VWS V14.00,2013-06-19 20:55:00,
2013-06-19 17:00:00,82.2,69.7,29.97,SE,128,0.0,4.0,66,0.00,,---,0.01,VWS V14.00,2013-06-19 21:00:00,
2013-06-19 17:05:00,82.1,65.4,29.96,SE,131,0.0,4.0,57,0.00,,---,0.01,VWS V14.00,2013-06-19 21:05:00,
2013-06-19 17:10:00,82.1,67.8,29.97,SE,131,0.0,0.0,62,0.00,,---,0.01,VWS V14.00,2013-06-19 21:10:00,
2013-06-19 17:15:00,81.9,68.5,29.97,SE,131,0.0,0.0,64,0.00,,---,0.01,VWS V14.00,2013-06-19 21:15:00,
2013-06-19 17:20:00,81.7,67.9,29.97,SE,131,0.0,0.0,63,0.00,,---,0.01,VWS V14.00,2013-06-19 21:20:00,
2013-06-19 17:25:00,81.5,69.1,29.97,SE,130,0.0,1.0,66,0.00,,---,0.01,VWS V14.00,2013-06-19 21:25:00,
2013-06-19 17:30:00,81.1,68.2,29.97,SE,130,0.0,1.0,65,0.00,,---,0.01,VWS V14.00,2013-06-19 21:30:00,
2013-06-19 17:35:00,80.8,68.4,29.97,SE,131,0.0,1.0,66,0.00,,---,0.01,VWS V14.00,2013-06-19 21:35:00,
2013-06-19 17:40:00,80.6,69.1,29.97,SE,131,0.0,0.0,68,0.00,,---,0.01,VWS V14.00,2013-06-19 21:40:00,
2013-06-19 17:45:00,80.4,68.4,29.98,SE,131,0.0,0.0,67,0.00,,---,0.01,VWS V14.00,2013-06-19 21:45:00,
2013-06-19 17:50:00,80.2,67.4,29.98,SSE,161,1.0,1.0,65,0.00,,---,0.01,VWS V14.00,2013-06-19 21:50:00,
2013-06-19 17:55:00,80.0,66.7,29.98,SSE,161,0.0,1.0,64,0.00,,---,0.01,VWS V14.00,2013-06-19 21:55:00,
2013-06-19 18:00:00,79.7,66.9,29.98,SSE,161,0.0,1.0,65,0.00,,---,0.01,VWS V14.00,2013-06-19 22:00:00,
2013-06-19 18:05:00,79.3,66.1,29.98,SSE,161,0.0,1.0,64,0.00,,---,0.01,VWS V14.00,2013-06-19 22:05:00,
2013-06-19 18:10:00,78.7,65.1,29.98,SSE,161,0.0,1.0,63,0.00,,---,0.01,VWS V14.00,2013-06-19 22:10:00,
2013-06-19 18:15:00,78.1,65.4,29.98,SSE,161,0.0,1.0,65,0.00,,---,0.01,VWS V14.00,2013-06-19 22:15:00,
2013-06-19 18:20:00,77.4,65.6,29.99,SSE,161,0.0,1.0,67,0.00,,---,0.01,VWS V14.00,2013-06-19 22:20:00,
2013-06-19 18:25:00,76.8,65.0,29.98,SSE,161,0.0,1.0,67,0.00,,---,0.01,VWS V14.00,2013-06-19 22:25:00,
2013-06-19 18:30:00,76.3,64.6,29.99,SSE,160,1.0,2.0,67,0.00,,---,0.01,VWS V14.00,2013-06-19 22:30:00,
2013-06-19 18:35:00,75.5,63.8,29.99,SSE,160,1.0,2.0,67,0.00,,---,0.01,VWS V14.00,2013-06-19 22:35:00,
2013-06-19 18:40:00,74.8,64.4,29.99,SSE,165,0.0,2.0,70,0.00,,---,0.01,VWS V14.00,2013-06-19 22:40:00,
2013-06-19 18:45:00,74.1,63.7,30.00,SSE,165,0.0,3.0,70,0.00,,---,0.01,VWS V14.00,2013-06-19 22:45:00,
2013-06-19 18:50:00,73.4,63.8,30.00,SSE,165,0.0,3.0,72,0.00,,---,0.01,VWS V14.00,2013-06-19 22:50:00,
2013-06-19 18:55:00,72.9,64.5,30.00,SSE,164,0.0,3.0,75,0.00,,---,0.01,VWS V14.00,2013-06-19 22:55:00,
2013-06-19 19:00:00,72.4,62.9,30.01,SSE,164,0.0,3.0,72,0.00,,---,0.01,VWS V14.00,2013-06-19 23:00:00,
2013-06-19 19:05:00,72.0,63.3,30.01,SSE,164,0.0,3.0,74,0.00,,---,0.01,VWS V14.00,2013-06-19 23:05:00,
2013-06-19 19:10:00,71.7,62.2,30.00,SSE,165,0.0,1.0,72,0.00,,---,0.01,VWS V14.00,2013-06-19 23:10:00,
2013-06-19 19:15:00,71.5,62.8,30.00,SSE,164,0.0,1.0,74,0.00,,---,0.01,VWS V14.00,2013-06-19 23:15:00,
2013-06-19 19:20:00,71.3,62.2,30.01,SSE,164,0.0,3.0,73,0.00,,---,0.01,VWS V14.00,2013-06-19 23:20:00,
2013-06-19 19:25:00,71.2,62.1,30.01,SSE,165,0.0,3.0,73,0.00,,---,0.01,VWS V14.00,2013-06-19 23:25:00,
2013-06-19 19:30:00,71.0,63.1,30.02,SSE,165,0.0,3.0,76,0.00,,---,0.01,VWS V14.00,2013-06-19 23:30:00,
2013-06-19 19:35:00,70.8,62.9,30.02,SSE,165,0.0,3.0,76,0.00,,---,0.01,VWS V14.00,2013-06-19 23:35:00,
2013-06-19 19:40:00,70.7,62.8,30.01,SSE,165,0.0,0.0,76,0.00,,---,0.01,VWS V14.00,2013-06-19 23:40:00,
2013-06-19 19:45:00,70.6,62.7,30.02,SSE,164,0.0,1.0,76,0.00,,---,0.01,VWS V14.00,2013-06-19 23:45:00,
2013-06-19 19:50:00,70.4,62.8,30.02,SSE,165,0.0,2.0,77,0.00,,---,0.01,VWS V14.00,2013-06-19 23:50:00,
2013-06-19 19:55:00,70.4,62.1,30.01,SSE,165,2.0,2.0,75,0.00,,---,0.01,VWS V14.00,2013-06-19 23:55:00,
2013-06-19 20:00:00,70.4,61.7,30.02,SSE,155,2.0,3.0,74,0.00,,---,0.01,VWS V14.00,2013-06-20 00:00:00,
2013-06-19 20:05:00,70.5,61.8,30.02,SSE,156,0.0,3.0,74,0.00,,---,0.01,VWS V14.00,2013-06-20 00:05:00,
2013-06-19 20:10:00,70.5,61.8,30.01,SSE,157,0.0,1.0,74,0.00,,---,0.01,VWS V14.00,2013-06-20 00:10:00,
2013-06-19 20:15:00,70.4,61.3,30.02,SSE,156,0.0,2.0,73,0.00,,---,0.01,VWS V14.00,2013-06-20 00:15:00,
2013-06-19 20:20:00,70.5,61.4,30.01,SSE,156,0.0,4.0,73,0.00,,---,0.01,VWS V14.00,2013-06-20 00:20:00,
2013-06-19 20:25:00,70.6,61.1,30.02,SSE,157,0.0,4.0,72,0.00,,---,0.01,VWS V14.00,2013-06-20 00:25:00,
2013-06-19 20:30:00,70.6,61.1,30.02,SSE,157,1.0,4.0,72,0.00,,---,0.01,VWS V14.00,2013-06-20 00:30:00,
2013-06-19 20:35:00,70.7,61.6,30.02,NNE,15,0.0,4.0,73,0.00,,---,0.01,VWS V14.00,2013-06-20 00:35:00,
2013-06-19 20:40:00,70.6,61.9,30.03,NNE,15,0.0,1.0,74,0.00,,---,0.01,VWS V14.00,2013-06-20 00:40:00,
2013-06-19 20:45:00,70.6,61.9,30.03,NNE,14,2.0,2.0,74,0.00,,---,0.01,VWS V14.00,2013-06-20 00:45:00,
2013-06-19 20:50:00,70.4,62.1,30.03,WNW,286,0.0,3.0,75,0.00,,---,0.01,VWS V14.00,2013-06-20 00:50:00,
2013-06-19 20:55:00,70.3,62.4,30.03,WNW,303,0.0,3.0,76,0.00,,---,0.01,VWS V14.00,2013-06-20 00:55:00,
2013-06-19 21:00:00,70.2,62.3,30.03,NW,304,0.0,3.0,76,0.00,,---,0.01,VWS V14.00,2013-06-20 01:00:00,
2013-06-19 21:05:00,70.1,62.6,30.03,NW,304,0.0,3.0,77,0.00,,---,0.01,VWS V14.00,2013-06-20 01:05:00,
2013-06-19 21:09:00,69.9,62.4,30.02,NW,304,0.0,0.0,77,0.00,,---,0.01,VWS V14.00,2013-06-20 01:09:00,
2013-06-19 21:14:00,69.8,62.6,30.02,NW,304,0.0,1.0,78,0.00,,---,0.01,VWS V14.00,2013-06-20 01:14:00,
2013-06-19 21:19:00,69.5,62.7,30.03,NW,304,0.0,1.0,79,0.00,,---,0.01,VWS V14.00,2013-06-20 01:19:00,
2013-06-19 21:24:00,69.2,62.4,30.03,NW,304,0.0,1.0,79,0.00,,---,0.01,VWS V14.00,2013-06-20 01:24:00,
2013-06-19 21:29:00,68.9,62.8,30.03,NW,304,0.0,1.0,81,0.00,,---,0.01,VWS V14.00,2013-06-20 01:29:00,
2013-06-19 21:34:00,68.6,62.2,30.03,NW,304,0.0,1.0,80,0.00,,---,0.01,VWS V14.00,2013-06-20 01:34:00,
2013-06-19 21:39:00,68.4,62.0,30.04,NW,304,0.0,0.0,80,0.00,,---,0.01,VWS V14.00,2013-06-20 01:39:00,
2013-06-19 21:44:00,68.3,62.2,30.04,NW,304,0.0,1.0,81,0.00,,---,0.01,VWS V14.00,2013-06-20 01:44:00,
2013-06-19 21:49:00,68.3,62.6,30.05,NW,304,0.0,1.0,82,0.00,,---,0.01,VWS V14.00,2013-06-20 01:49:00,
2013-06-19 21:54:00,68.1,62.4,30.05,NW,304,0.0,1.0,82,0.00,,---,0.01,VWS V14.00,2013-06-20 01:54:00,
2013-06-19 21:59:00,68.1,62.8,30.05,NW,304,0.0,1.0,83,0.00,,---,0.01,VWS V14.00,2013-06-20 01:59:00,
2013-06-19 22:04:00,68.1,63.1,30.05,NW,304,0.0,1.0,84,0.00,,---,0.01,VWS V14.00,2013-06-20 02:04:00,
2013-06-19 22:09:00,68.0,62.3,30.05,NW,304,0.0,1.0,82,0.00,,---,0.01,VWS V14.00,2013-06-20 02:09:00,
2013-06-19 22:14:00,67.9,62.5,30.05,NW,304,0.0,1.0,83,0.00,,---,0.01,VWS V14.00,2013-06-20 02:14:00,
2013-06-19 22:19:00,67.8,61.8,30.05,NW,304,0.0,1.0,81,0.00,,---,0.01,VWS V14.00,2013-06-20 02:19:00,
2013-06-19 22:24:00,67.8,61.8,30.05,NW,304,0.0,1.0,81,0.00,,---,0.01,VWS V14.00,2013-06-20 02:24:00,
2013-06-19 22:29:00,67.8,62.1,30.05,NW,304,0.0,1.0,82,0.00,,---,0.01,VWS V14.00,2013-06-20 02:29:00,
2013-06-19 22:34:00,67.8,62.1,30.06,NW,304,0.0,1.0,82,0.00,,---,0.01,VWS V14.00,2013-06-20 02:34:00,
2013-06-19 22:39:00,67.8,62.1,30.06,NW,304,0.0,0.0,82,0.00,,---,0.01,VWS V14.00,2013-06-20 02:39:00,
2013-06-19 22:44:00,67.7,61.7,30.06,NW,304,0.0,0.0,81,0.00,,---,0.01,VWS V14.00,2013-06-20 02:44:00,
2013-06-19 22:49:00,67.6,62.3,30.06,NW,304,0.0,0.0,83,0.00,,---,0.01,VWS V14.00,2013-06-20 02:49:00,
2013-06-19 22:54:00,67.4,62.4,30.07,NW,304,0.0,0.0,84,0.00,,---,0.01,VWS V14.00,2013-06-20 02:54:00,
2013-06-19 22:59:00,67.3,62.6,30.07,NW,304,0.0,0.0,85,0.00,,---,0.01,VWS V14.00,2013-06-20 02:59:00,
2013-06-19 23:04:00,67.1,62.5,30.07,NW,304,0.0,0.0,85,0.00,,---,0.01,VWS V14.00,2013-06-20 03:04:00,
2013-06-19 23:09:00,67.0,62.7,30.07,NW,304,0.0,0.0,86,0.00,,---,0.01,VWS V14.00,2013-06-20 03:09:00,
2013-06-19 23:14:00,66.8,62.5,30.07,NW,304,0.0,0.0,86,0.00,,---,0.01,VWS V14.00,2013-06-20 03:14:00,
2013-06-19 23:19:00,66.7,62.4,30.07,NW,304,0.0,0.0,86,0.00,,---,0.01,VWS V14.00,2013-06-20 03:19:00,
2013-06-19 23:24:00,66.6,62.3,30.07,NW,304,0.0,0.0,86,0.00,,---,0.01,VWS V14.00,2013-06-20 03:24:00,
2013-06-19 23:29:00,66.5,62.5,30.07,NW,304,0.0,0.0,87,0.00,,---,0.01,VWS V14.00,2013-06-20 03:29:00,
2013-06-19 23:34:00,66.3,62.6,30.07,NW,304,0.0,0.0,88,0.00,,---,0.01,VWS V14.00,2013-06-20 03:34:00,
2013-06-19 23:39:00,66.1,62.1,30.07,NW,304,0.0,0.0,87,0.00,,---,0.01,VWS V14.00,2013-06-20 03:39:00,
2013-06-19 23:44:00,66.0,62.0,30.07,NW,304,0.0,0.0,87,0.00,,---,0.01,VWS V14.00,2013-06-20 03:44:00,
2013-06-19 23:49:00,65.9,61.9,30.07,NW,304,0.0,0.0,87,0.00,,---,0.01,VWS V14.00,2013-06-20 03:49:00,
2013-06-19 23:54:00,65.8,62.2,30.07,NW,304,0.0,0.0,88,0.00,,---,0.01,VWS V14.00,2013-06-20 03:54:00,
2013-06-19 23:59:00,65.8,62.5,30.07,NW,304,0.0,0.0,89,0.00,,---,0.01,VWS V14.00,2013-06-20 03:59:00,